createdAt,value
2018-12-20T00:00:01.323Z,4.80
2018-12-20T00:02:30.044Z,4.80
2018-12-20T00:04:58.844Z,4.90
2018-12-20T00:07:27.449Z,4.80
2018-12-20T00:09:56.227Z,4.80
2018-12-20T00:12:24.852Z,4.80
2018-12-20T00:14:54.058Z,4.80
2018-12-20T00:17:28.510Z,4.80
2018-12-20T00:19:57.403Z,4.80
2018-12-20T00:22:26.190Z,4.80
2018-12-20T00:24:54.876Z,4.70
2018-12-20T00:27:23.789Z,4.80
2018-12-20T00:29:52.869Z,4.90
2018-12-20T00:32:21.745Z,4.90
2018-12-20T00:34:50.594Z,4.90
2018-12-20T00:37:20.327Z,4.90
2018-12-20T00:39:49.949Z,4.90
2018-12-20T00:42:18.916Z,4.90
2018-12-20T00:44:48.301Z,4.90
2018-12-20T00:47:16.943Z,4.90
2018-12-20T00:49:45.504Z,4.90
2018-12-20T00:52:14.164Z,4.90
2018-12-20T00:54:42.931Z,4.90
2018-12-20T00:57:11.603Z,4.90
2018-12-20T00:59:40.337Z,4.90
2018-12-20T01:02:09.110Z,4.90
2018-12-20T01:04:38.003Z,4.90
2018-12-20T01:07:06.956Z,4.90
2018-12-20T01:09:35.557Z,4.90
2018-12-20T01:12:04.553Z,5.10
2018-12-20T01:14:33.171Z,5.20
2018-12-20T01:17:01.907Z,5.30
2018-12-20T01:19:30.638Z,5.20
2018-12-20T01:21:59.398Z,5.00
2018-12-20T01:24:28.259Z,5.00
2018-12-20T01:26:56.902Z,4.90
2018-12-20T01:29:26.287Z,4.90
2018-12-20T01:31:55.347Z,4.90
2018-12-20T01:34:23.952Z,4.90
2018-12-20T01:36:52.788Z,4.90
2018-12-20T01:39:21.659Z,4.80
2018-12-20T01:41:50.288Z,4.80
2018-12-20T01:44:19.185Z,4.90
2018-12-20T01:46:48.077Z,4.80
2018-12-20T01:49:16.693Z,4.90
2018-12-20T01:51:45.196Z,4.80
2018-12-20T01:54:13.931Z,4.80
2018-12-20T01:56:42.682Z,4.90
2018-12-20T01:59:11.672Z,4.90
2018-12-20T02:01:40.709Z,4.90
2018-12-20T02:04:09.999Z,5.00
2018-12-20T02:06:38.983Z,4.90
2018-12-20T02:09:09.880Z,4.90
2018-12-20T02:11:38.912Z,5.00
2018-12-20T02:14:07.761Z,5.20
2018-12-20T02:16:36.784Z,5.20
2018-12-20T02:19:05.764Z,4.90
2018-12-20T02:21:34.550Z,4.90
2018-12-20T02:24:03.454Z,4.90
2018-12-20T02:26:32.048Z,4.80
2018-12-20T02:29:00.687Z,4.70
2018-12-20T02:31:29.420Z,4.90
2018-12-20T02:33:58.452Z,5.00
2018-12-20T02:36:27.191Z,5.10
2018-12-20T02:38:55.867Z,5.20
2018-12-20T02:41:24.803Z,5.00
2018-12-20T02:43:54.743Z,4.80
2018-12-20T02:46:23.587Z,4.70
2018-12-20T02:48:52.559Z,4.60
2018-12-20T02:51:21.440Z,4.50
2018-12-20T02:53:50.745Z,4.50
2018-12-20T02:56:19.519Z,4.60
2018-12-20T02:58:48.491Z,4.50
2018-12-20T03:01:17.269Z,4.60
2018-12-20T03:03:46.232Z,4.70
2018-12-20T03:06:15.103Z,4.70
2018-12-20T03:08:44.021Z,4.90
2018-12-20T03:11:13.985Z,4.90
2018-12-20T03:13:42.777Z,5.00
2018-12-20T03:16:11.471Z,4.90
2018-12-20T03:18:40.406Z,4.90
2018-12-20T03:21:09.352Z,4.90
2018-12-20T03:23:38.057Z,4.90
2018-12-20T03:26:06.990Z,5.00
2018-12-20T03:28:35.760Z,5.00
2018-12-20T03:31:04.706Z,5.00
2018-12-20T03:33:33.788Z,4.90
2018-12-20T03:36:02.685Z,4.90
2018-12-20T03:38:31.609Z,4.80
2018-12-20T03:41:00.561Z,4.80
2018-12-20T03:43:29.542Z,4.80
2018-12-20T03:45:58.524Z,4.70
2018-12-20T03:48:27.399Z,4.70
2018-12-20T03:50:56.027Z,4.70
2018-12-20T03:53:24.923Z,4.70
2018-12-20T03:55:53.876Z,4.80
2018-12-20T03:58:23.151Z,4.80
2018-12-20T04:00:52.013Z,4.80
2018-12-20T04:03:21.233Z,4.90
2018-12-20T04:05:50.288Z,5.00
2018-12-20T04:08:18.915Z,5.10
2018-12-20T04:10:48.101Z,5.20
2018-12-20T04:13:16.928Z,5.20
2018-12-20T04:15:45.867Z,5.20
2018-12-20T04:18:14.503Z,5.20
2018-12-20T04:20:43.599Z,5.20
2018-12-20T04:23:12.941Z,5.20
2018-12-20T04:25:41.767Z,5.10
2018-12-20T04:28:11.397Z,5.10
2018-12-20T04:30:40.187Z,5.10
2018-12-20T04:33:08.982Z,5.00
2018-12-20T04:35:37.967Z,5.00
2018-12-20T04:38:06.949Z,5.10
2018-12-20T04:40:35.867Z,5.10
2018-12-20T04:43:04.559Z,5.00
2018-12-20T04:45:33.418Z,5.00
2018-12-20T04:48:02.084Z,5.00
2018-12-20T04:50:30.641Z,5.00
2018-12-20T04:52:59.253Z,5.00
2018-12-20T04:55:28.090Z,5.10
2018-12-20T04:57:57.033Z,5.10
2018-12-20T05:00:25.682Z,5.20
2018-12-20T05:02:54.278Z,5.10
2018-12-20T05:05:23.125Z,5.10
2018-12-20T05:07:51.728Z,5.10
2018-12-20T05:10:20.680Z,5.20
2018-12-20T05:12:49.395Z,5.20
2018-12-20T05:15:17.898Z,5.10
2018-12-20T05:17:46.511Z,5.00
2018-12-20T05:20:15.101Z,5.00
2018-12-20T05:22:43.958Z,5.10
2018-12-20T05:25:12.676Z,5.10
2018-12-20T05:27:41.549Z,5.20
2018-12-20T05:30:10.163Z,5.30
2018-12-20T05:32:40.161Z,5.40
2018-12-20T05:35:08.731Z,5.50
2018-12-20T05:37:37.711Z,5.60
2018-12-20T05:40:07.879Z,5.60
2018-12-20T05:42:36.650Z,5.60
2018-12-20T05:45:05.875Z,5.60
2018-12-20T05:47:34.779Z,5.60
2018-12-20T05:50:03.522Z,5.60
2018-12-20T05:52:32.192Z,5.50
2018-12-20T05:55:00.820Z,5.50
2018-12-20T05:57:29.610Z,5.50
2018-12-20T05:59:58.920Z,5.40
2018-12-20T06:02:27.720Z,5.30
2018-12-20T06:04:56.584Z,5.30
2018-12-20T06:07:25.314Z,5.30
2018-12-20T06:09:54.046Z,5.40
2018-12-20T06:12:22.835Z,5.30
2018-12-20T06:14:51.543Z,5.30
2018-12-20T06:17:20.506Z,5.40
2018-12-20T06:19:49.274Z,5.40
2018-12-20T06:22:17.996Z,5.30
2018-12-20T06:24:46.934Z,5.20
2018-12-20T06:27:15.639Z,5.20
2018-12-20T06:29:44.169Z,5.30
2018-12-20T06:32:12.657Z,5.20
2018-12-20T06:34:41.383Z,5.20
2018-12-20T06:37:10.767Z,5.20
2018-12-20T06:39:39.329Z,5.30
2018-12-20T06:42:07.960Z,5.20
2018-12-20T06:44:36.607Z,5.20
2018-12-20T06:47:05.113Z,5.20
2018-12-20T06:49:33.606Z,5.20
2018-12-20T06:52:02.185Z,5.20
2018-12-20T06:54:30.786Z,5.10
2018-12-20T06:56:59.520Z,5.20
2018-12-20T06:59:28.188Z,5.20
2018-12-20T07:01:56.842Z,5.20
2018-12-20T07:04:25.486Z,5.20
2018-12-20T07:06:54.028Z,5.30
2018-12-20T07:09:22.508Z,5.30
2018-12-20T07:11:51.006Z,5.40
2018-12-20T07:14:19.802Z,5.40
2018-12-20T07:16:48.448Z,5.40
2018-12-20T07:19:17.059Z,5.40
2018-12-20T07:21:45.667Z,5.40
2018-12-20T07:24:14.177Z,5.50
2018-12-20T07:26:42.855Z,5.50
2018-12-20T07:29:11.615Z,5.50
2018-12-20T07:31:40.239Z,5.60
2018-12-20T07:34:08.942Z,5.40
2018-12-20T07:36:37.786Z,5.40
2018-12-20T07:39:08.182Z,5.40
2018-12-20T07:41:36.719Z,5.40
2018-12-20T07:44:05.517Z,5.40
2018-12-20T07:46:37.852Z,5.40
2018-12-20T07:49:04.661Z,5.40
2018-12-20T07:51:33.359Z,5.30
2018-12-20T07:54:02.001Z,5.30
2018-12-20T07:56:30.784Z,5.30
2018-12-20T07:58:59.421Z,5.20
2018-12-20T08:01:28.243Z,5.20
2018-12-20T08:03:56.676Z,5.40
2018-12-20T08:06:25.467Z,5.30
2018-12-20T08:08:54.112Z,5.30
2018-12-20T08:11:22.927Z,5.40
2018-12-20T08:13:51.614Z,5.40
2018-12-20T08:16:20.329Z,5.40
2018-12-20T08:18:49.137Z,5.40
2018-12-20T08:21:17.756Z,5.50
2018-12-20T08:23:46.474Z,5.60
2018-12-20T08:26:15.170Z,5.60
2018-12-20T08:28:43.796Z,5.60
2018-12-20T08:31:12.479Z,5.60
2018-12-20T08:33:41.096Z,5.60
2018-12-20T08:36:10.468Z,5.60
2018-12-20T08:38:41.053Z,5.70
2018-12-20T08:41:09.689Z,5.70
2018-12-20T08:43:39.202Z,5.70
2018-12-20T08:46:07.929Z,5.70
2018-12-20T08:48:36.413Z,5.70
2018-12-20T08:51:05.002Z,5.80
2018-12-20T08:53:33.715Z,5.80
2018-12-20T08:56:02.393Z,5.80
2018-12-20T08:58:31.039Z,5.80
2018-12-20T09:01:01.159Z,6.00
2018-12-20T09:03:29.657Z,6.10
2018-12-20T09:05:58.238Z,6.20
2018-12-20T09:08:26.857Z,6.30
2018-12-20T09:10:55.495Z,6.30
2018-12-20T09:13:24.072Z,6.20
2018-12-20T09:15:52.724Z,6.20
2018-12-20T09:18:21.198Z,6.10
2018-12-20T09:20:49.799Z,6.20
2018-12-20T09:23:18.578Z,6.20
2018-12-20T09:25:47.354Z,6.10
2018-12-20T09:28:16.153Z,6.10
2018-12-20T09:30:44.768Z,6.00
2018-12-20T09:33:13.434Z,6.00
2018-12-20T09:35:42.325Z,6.00
2018-12-20T09:38:10.822Z,6.00
2018-12-20T09:40:39.602Z,6.10
2018-12-20T09:43:08.122Z,6.10
2018-12-20T09:45:36.879Z,6.10
2018-12-20T09:48:05.578Z,6.10
2018-12-20T09:50:34.950Z,6.10
2018-12-20T09:53:03.446Z,6.20
2018-12-20T09:55:32.129Z,6.20
2018-12-20T09:58:00.948Z,6.30
2018-12-20T10:00:29.750Z,6.30
2018-12-20T10:02:58.318Z,6.40
2018-12-20T10:05:26.884Z,6.40
2018-12-20T10:07:55.900Z,6.50
2018-12-20T10:10:25.126Z,6.60
2018-12-20T10:12:53.715Z,6.70
2018-12-20T10:15:22.476Z,6.70
2018-12-20T10:17:51.189Z,6.70
2018-12-20T10:20:19.918Z,6.80
2018-12-20T10:22:48.414Z,6.90
2018-12-20T10:25:17.329Z,7.10
2018-12-20T10:27:46.067Z,7.20
2018-12-20T10:30:14.763Z,7.30
2018-12-20T10:32:44.648Z,7.40
2018-12-20T10:35:13.773Z,7.40
2018-12-20T10:37:42.685Z,7.40
2018-12-20T10:40:11.407Z,7.40
2018-12-20T10:42:40.339Z,7.40
2018-12-20T10:45:09.181Z,7.50
2018-12-20T10:47:38.000Z,7.60
2018-12-20T10:50:07.956Z,7.70
2018-12-20T10:52:36.808Z,7.70
2018-12-20T10:55:05.575Z,7.80
2018-12-20T10:57:34.519Z,7.80
2018-12-20T11:00:03.990Z,7.90
2018-12-20T11:02:38.176Z,7.90
2018-12-20T11:05:12.278Z,8.00
2018-12-20T11:07:46.451Z,8.00
2018-12-20T11:10:31.976Z,8.00
2018-12-20T11:13:05.091Z,8.00
2018-12-20T11:15:34.584Z,8.00
2018-12-20T11:18:03.512Z,8.10
2018-12-20T11:20:32.284Z,8.10
2018-12-20T11:23:01.874Z,8.20
2018-12-20T11:25:31.421Z,8.20
2018-12-20T11:28:00.475Z,8.20
2018-12-20T11:30:29.237Z,8.10
2018-12-20T11:32:59.631Z,8.20
2018-12-20T11:35:28.704Z,8.30
2018-12-20T11:37:57.468Z,8.30
2018-12-20T11:40:26.203Z,8.40
2018-12-20T11:42:54.946Z,8.30
2018-12-20T11:45:23.563Z,8.40
2018-12-20T11:47:52.219Z,8.50
2018-12-20T11:50:20.949Z,8.40
2018-12-20T11:52:49.679Z,8.50
2018-12-20T11:55:18.394Z,8.40
2018-12-20T11:57:47.002Z,8.40
2018-12-20T12:00:15.897Z,8.40
2018-12-20T12:02:44.385Z,8.40
2018-12-20T12:05:13.109Z,8.40
2018-12-20T12:07:41.736Z,8.40
2018-12-20T12:10:10.360Z,8.50
2018-12-20T12:12:39.574Z,8.40
2018-12-20T12:15:08.525Z,8.30
2018-12-20T12:17:37.269Z,8.20
2018-12-20T12:20:07.004Z,8.10
2018-12-20T12:22:35.701Z,8.30
2018-12-20T12:25:05.093Z,8.30
2018-12-20T12:27:33.746Z,8.30
2018-12-20T12:30:02.349Z,8.30
2018-12-20T12:32:30.991Z,8.30
2018-12-20T12:34:59.536Z,8.40
2018-12-20T12:37:28.171Z,8.40
2018-12-20T12:39:56.680Z,8.40
2018-12-20T12:42:25.545Z,8.30
2018-12-20T12:44:54.230Z,8.40
2018-12-20T12:47:28.099Z,8.40
2018-12-20T12:49:57.229Z,8.40
2018-12-20T12:52:25.699Z,8.30
2018-12-20T12:54:54.329Z,8.30
2018-12-20T12:57:23.011Z,8.30
2018-12-20T12:59:52.428Z,8.40
2018-12-20T13:02:21.158Z,8.40
2018-12-20T13:04:49.950Z,8.40
2018-12-20T13:07:18.801Z,8.50
2018-12-20T13:09:47.582Z,8.40
2018-12-20T13:12:16.752Z,8.40
2018-12-20T13:14:45.436Z,8.40
2018-12-20T13:17:14.327Z,8.50
2018-12-20T13:19:42.953Z,8.50
2018-12-20T13:22:11.699Z,8.60
2018-12-20T13:24:40.344Z,8.60
2018-12-20T13:27:09.184Z,8.60
2018-12-20T13:29:37.714Z,8.70
2018-12-20T13:32:06.359Z,8.70
2018-12-20T13:34:34.855Z,8.70
2018-12-20T13:37:03.387Z,8.60
2018-12-20T13:39:32.003Z,8.60
2018-12-20T13:42:00.518Z,8.60
2018-12-20T13:44:29.327Z,8.60
2018-12-20T13:46:58.117Z,8.60
2018-12-20T13:49:26.830Z,8.60
2018-12-20T13:51:55.407Z,8.70
2018-12-20T13:54:24.052Z,8.60
2018-12-20T13:56:52.818Z,8.70
2018-12-20T13:59:21.456Z,8.70
2018-12-20T14:01:50.195Z,8.70
2018-12-20T14:04:18.919Z,8.70
2018-12-20T14:06:48.316Z,8.70
2018-12-20T14:09:16.925Z,8.70
2018-12-20T14:11:45.586Z,8.70
2018-12-20T14:14:14.621Z,8.70
2018-12-20T14:16:43.665Z,8.70
2018-12-20T14:19:12.339Z,8.70
2018-12-20T14:21:40.987Z,8.70
2018-12-20T14:24:09.696Z,8.60
2018-12-20T14:26:38.309Z,8.60
2018-12-20T14:29:07.153Z,8.60
2018-12-20T14:31:35.884Z,8.70
2018-12-20T14:34:04.530Z,8.70
2018-12-20T14:36:33.284Z,8.70
2018-12-20T14:39:02.147Z,8.70
2018-12-20T14:41:30.809Z,8.70
2018-12-20T14:43:59.428Z,8.70
2018-12-20T14:46:28.940Z,8.70
2018-12-20T14:48:57.654Z,8.70
2018-12-20T14:51:26.435Z,8.70
2018-12-20T14:53:55.019Z,8.70
2018-12-20T14:56:23.734Z,8.70
2018-12-20T14:58:52.206Z,8.70
2018-12-20T15:01:20.893Z,8.70
2018-12-20T15:03:49.400Z,8.70
2018-12-20T15:06:18.264Z,8.70
2018-12-20T15:08:47.232Z,8.70
2018-12-20T15:11:16.317Z,8.50
2018-12-20T15:13:45.113Z,8.50
2018-12-20T15:16:13.700Z,8.50
2018-12-20T15:18:47.600Z,8.50
2018-12-20T15:21:13.394Z,8.50
2018-12-20T15:23:42.648Z,8.40
2018-12-20T15:26:11.391Z,8.40
2018-12-20T15:28:40.031Z,8.30
2018-12-20T15:31:08.570Z,8.30
2018-12-20T15:33:37.195Z,8.20
2018-12-20T15:36:05.791Z,8.20
2018-12-20T15:38:34.578Z,8.20
2018-12-20T15:41:03.701Z,8.20
2018-12-20T15:43:33.391Z,8.10
2018-12-20T15:46:02.512Z,8.10
2018-12-20T15:48:31.456Z,8.10
2018-12-20T15:51:00.417Z,8.10
2018-12-20T15:53:29.040Z,8.10
2018-12-20T15:55:58.745Z,8.00
2018-12-20T15:58:27.399Z,8.00
2018-12-20T16:00:56.190Z,7.90
2018-12-20T16:03:25.400Z,7.90
2018-12-20T16:05:54.182Z,7.80
2018-12-20T16:08:23.180Z,7.80
2018-12-20T16:10:51.900Z,7.80
2018-12-20T16:13:20.642Z,7.90
2018-12-20T16:15:49.500Z,7.80
2018-12-20T16:18:18.288Z,7.90
2018-12-20T16:20:47.224Z,7.90
2018-12-20T16:23:16.166Z,8.00
2018-12-20T16:25:44.954Z,7.90
2018-12-20T16:28:13.823Z,7.90
2018-12-20T16:30:42.623Z,7.90
2018-12-20T16:33:11.494Z,7.80
2018-12-20T16:35:40.289Z,7.90
2018-12-20T16:38:09.060Z,7.90
2018-12-20T16:40:37.731Z,7.90
2018-12-20T16:43:06.631Z,7.90
2018-12-20T16:45:35.505Z,7.90
2018-12-20T16:48:04.457Z,7.90
2018-12-20T16:50:33.443Z,7.80
2018-12-20T16:53:02.281Z,7.80
2018-12-20T16:55:31.085Z,7.80
2018-12-20T16:57:59.793Z,7.80
2018-12-20T17:00:28.652Z,7.80
2018-12-20T17:02:57.424Z,7.80
2018-12-20T17:05:26.831Z,7.70
2018-12-20T17:07:55.707Z,7.70
2018-12-20T17:10:24.688Z,7.70
2018-12-20T17:12:53.404Z,7.70
2018-12-20T17:15:22.240Z,7.80
2018-12-20T17:17:51.848Z,7.70
2018-12-20T17:20:20.739Z,7.70
2018-12-20T17:22:49.893Z,7.70
2018-12-20T17:25:18.705Z,7.70
2018-12-20T17:27:48.306Z,7.60
2018-12-20T17:30:17.848Z,7.50
2018-12-20T17:32:48.346Z,7.60
2018-12-20T17:35:17.333Z,7.60
2018-12-20T17:37:46.414Z,7.60
2018-12-20T17:40:16.477Z,7.40
2018-12-20T17:42:45.412Z,7.40
2018-12-20T17:45:14.027Z,7.40
2018-12-20T17:47:42.771Z,7.30
2018-12-20T17:50:11.729Z,7.30
2018-12-20T17:52:41.307Z,7.30
2018-12-20T17:55:10.315Z,7.40
2018-12-20T17:57:39.393Z,7.30
2018-12-20T18:00:10.758Z,7.40
2018-12-20T18:02:39.540Z,7.40
2018-12-20T18:05:08.385Z,7.30
2018-12-20T18:07:37.406Z,7.30
2018-12-20T18:10:09.912Z,7.20
2018-12-20T18:12:38.759Z,7.20
2018-12-20T18:15:10.072Z,7.20
2018-12-20T18:17:39.555Z,7.30
2018-12-20T18:20:10.362Z,7.20
2018-12-20T18:22:39.967Z,7.20
2018-12-20T18:25:08.926Z,7.20
2018-12-20T18:27:37.612Z,7.20
2018-12-20T18:30:09.565Z,7.20
2018-12-20T18:32:38.441Z,7.20
2018-12-20T18:35:08.443Z,7.20
2018-12-20T18:37:36.969Z,7.20
2018-12-20T18:40:07.530Z,7.10
2018-12-20T18:42:36.616Z,7.10
2018-12-20T18:45:06.441Z,7.20
2018-12-20T18:47:35.187Z,7.10
2018-12-20T18:50:03.911Z,7.20
2018-12-20T18:52:32.511Z,7.10
2018-12-20T18:55:01.293Z,7.10
2018-12-20T18:57:30.132Z,7.10
2018-12-20T18:59:58.906Z,7.10
2018-12-20T19:02:27.617Z,7.10
2018-12-20T19:04:56.435Z,7.00
2018-12-20T19:07:25.210Z,7.10
2018-12-20T19:09:53.772Z,7.20
2018-12-20T19:12:22.434Z,7.20
2018-12-20T19:14:50.924Z,7.20
2018-12-20T19:17:19.756Z,7.20
2018-12-20T19:22:20.425Z,7.10
2018-12-20T19:22:56.219Z,7.20
2018-12-20T19:24:48.939Z,7.10
2018-12-20T19:27:17.638Z,7.10
2018-12-20T19:29:46.197Z,7.20
2018-12-20T19:32:14.834Z,7.10
2018-12-20T19:34:43.726Z,7.10
2018-12-20T19:37:12.512Z,7.10
2018-12-20T19:39:42.033Z,7.10
2018-12-20T19:42:13.290Z,7.20
2018-12-20T19:44:41.871Z,7.10
2018-12-20T19:47:10.372Z,7.10
2018-12-20T19:49:39.594Z,7.10
2018-12-20T19:52:08.187Z,7.00
2018-12-20T19:54:36.927Z,7.00
2018-12-20T19:57:05.520Z,6.90
2018-12-20T19:59:38.653Z,7.00
2018-12-20T20:02:05.075Z,7.00
2018-12-20T20:04:33.887Z,7.00
2018-12-20T20:07:02.586Z,7.10
2018-12-20T20:09:31.106Z,6.90
2018-12-20T20:11:59.719Z,6.90
2018-12-20T20:14:28.463Z,7.00
2018-12-20T20:16:57.108Z,7.00
2018-12-20T20:19:25.861Z,7.10
2018-12-20T20:21:54.604Z,7.10
2018-12-20T20:24:23.448Z,7.20
2018-12-20T20:26:52.027Z,7.20
2018-12-20T20:29:20.660Z,7.20
2018-12-20T20:31:49.568Z,7.20
2018-12-20T20:34:18.141Z,7.20
2018-12-20T20:36:46.775Z,7.30
2018-12-20T20:39:15.502Z,7.20
2018-12-20T20:41:44.293Z,7.20
2018-12-20T20:44:13.035Z,7.20
2018-12-20T20:46:41.590Z,7.10
2018-12-20T20:49:10.189Z,7.20
2018-12-20T20:51:38.800Z,7.20
2018-12-20T20:54:07.329Z,7.30
2018-12-20T20:56:35.866Z,7.20
2018-12-20T20:59:04.546Z,7.10
2018-12-20T21:01:33.133Z,7.00
2018-12-20T21:04:03.810Z,7.10
2018-12-20T21:06:32.347Z,7.10
2018-12-20T21:09:01.359Z,7.10
2018-12-20T21:11:30.006Z,7.10
2018-12-20T21:13:58.926Z,7.10
2018-12-20T21:16:28.301Z,7.10
2018-12-20T21:18:56.888Z,7.00
2018-12-20T21:21:25.689Z,6.80
2018-12-20T21:23:54.281Z,6.80
2018-12-20T21:26:23.048Z,6.90
2018-12-20T21:28:51.745Z,7.00
2018-12-20T21:31:20.339Z,7.00
2018-12-20T21:33:50.262Z,7.00
2018-12-20T21:36:19.015Z,7.10
2018-12-20T21:38:47.850Z,7.10
2018-12-20T21:41:16.549Z,7.10
2018-12-20T21:43:45.270Z,7.10
2018-12-20T21:46:13.832Z,7.10
2018-12-20T21:48:42.682Z,7.10
2018-12-20T21:51:11.325Z,7.10
2018-12-20T21:53:40.045Z,7.00
2018-12-20T21:56:08.834Z,7.00
2018-12-20T21:58:37.515Z,7.00
2018-12-20T22:01:06.187Z,7.10
2018-12-20T22:03:34.808Z,7.00
2018-12-20T22:06:03.563Z,7.10
2018-12-20T22:08:32.212Z,7.00
2018-12-20T22:11:00.910Z,7.00
2018-12-20T22:13:29.427Z,7.10
2018-12-20T22:15:58.092Z,6.90
2018-12-20T22:18:27.018Z,6.80
2018-12-20T22:20:55.859Z,6.80
2018-12-20T22:23:24.488Z,6.80
2018-12-20T22:25:53.252Z,6.80
2018-12-20T22:28:21.942Z,6.70
2018-12-20T22:30:51.385Z,6.70
2018-12-20T22:33:20.078Z,6.80
2018-12-20T22:35:48.687Z,6.90
2018-12-20T22:38:17.421Z,6.90
2018-12-20T22:40:46.258Z,7.00
2018-12-20T22:43:14.895Z,6.90
2018-12-20T22:45:43.731Z,7.00
2018-12-20T22:48:12.461Z,7.00
2018-12-20T22:50:41.082Z,7.10
2018-12-20T22:53:09.881Z,7.10
2018-12-20T22:55:38.556Z,7.10
2018-12-20T22:58:07.186Z,7.10
2018-12-20T23:00:36.053Z,7.20
2018-12-20T23:03:05.274Z,7.10
2018-12-20T23:05:33.999Z,7.10
2018-12-20T23:08:03.059Z,7.10
2018-12-20T23:10:31.811Z,7.10
2018-12-20T23:13:00.594Z,7.10
2018-12-20T23:15:29.102Z,7.10
2018-12-20T23:17:57.912Z,7.20
2018-12-20T23:20:26.730Z,7.20
2018-12-20T23:22:55.526Z,7.20
2018-12-20T23:25:24.656Z,7.20
2018-12-20T23:27:53.336Z,7.10
2018-12-20T23:30:22.293Z,7.10
2018-12-20T23:32:51.889Z,7.10
2018-12-20T23:35:21.040Z,7.00
2018-12-20T23:37:49.709Z,6.90
2018-12-20T23:40:18.619Z,6.80
2018-12-20T23:42:47.585Z,6.70
2018-12-20T23:45:20.666Z,6.80
2018-12-20T23:47:49.610Z,6.70
2018-12-20T23:50:18.356Z,6.70
2018-12-20T23:52:47.284Z,6.80
2018-12-20T23:55:16.068Z,6.70
2018-12-20T23:57:44.852Z,6.70
